Time;durP1;ratioP1;P1;durP2;ratioP2;P2;SDS_P1;SDS_P2;PMS_P1;PMS_P2;Temp;Humidity;BMP_temperature;BMP_pressure;BME280_temperature;BME280_humidity;BME280_pressure;Samples;Min_cycle;Max_cycle;Signal;HPM_P1;HPM_P2
2024/03/13 07:22:20;;;;;;;3.53;1.93;;;11.40;99.90;;;;;;3420518;23;20244;-73
2024/03/13 07:24:47;;;;;;;3.30;1.63;;;11.40;99.90;;;;;;4935441;29;20239;-72
2024/03/13 07:27:14;;;;;;;3.77;2.13;;;11.40;99.90;;;;;;4936036;29;20219;-72
2024/03/13 07:29:41;;;;;;;5.50;2.17;;;11.40;99.90;;;;;;4935824;29;20256;-74
2024/03/13 07:32:08;;;;;;;8.43;2.03;;;11.50;99.90;;;;;;4920309;29;20736;-73
2024/03/13 07:34:34;;;;;;;2.83;1.67;;;11.50;99.90;;;;;;4920383;29;20631;-74
2024/03/13 07:37:02;;;;;;;4.80;1.77;;;11.40;99.90;;;;;;4920187;29;20630;-75
2024/03/13 07:39:30;;;;;;;3.87;1.90;;;11.40;99.90;;;;;;4920111;29;20244;-72
2024/03/13 07:41:57;;;;;;;6.10;1.67;;;11.40;99.90;;;;;;4920265;29;20209;-72
2024/03/13 07:44:24;;;;;;;3.93;1.60;;;11.50;99.90;;;;;;4920094;29;20232;-72
2024/03/13 07:46:51;;;;;;;4.37;1.40;;;11.60;99.90;;;;;;4920171;29;20247;-72
2024/03/13 07:49:18;;;;;;;4.10;1.50;;;11.60;99.90;;;;;;4919850;29;20229;-72
2024/03/13 07:51:46;;;;;;;5.47;2.00;;;11.70;99.90;;;;;;4920046;29;20215;-76
2024/03/13 07:54:13;;;;;;;2.10;1.20;;;11.70;99.90;;;;;;4919928;29;20230;-73
2024/03/13 07:56:40;;;;;;;2.63;1.07;;;11.70;99.90;;;;;;4919858;29;20248;-73
2024/03/13 07:59:07;;;;;;;4.23;1.30;;;11.60;99.90;;;;;;4919960;29;20271;-73
2024/03/13 08:01:41;;;;;;;2.90;1.60;;;11.70;99.90;;;;;;4919617;29;20237;-76
2024/03/13 08:04:08;;;;;;;4.70;1.37;;;11.80;99.90;;;;;;4919970;29;20212;-73
2024/03/13 08:06:36;;;;;;;4.07;1.50;;;11.90;99.90;;;;;;4919989;29;20259;-73
2024/03/13 08:09:03;;;;;;;2.20;1.27;;;12.00;99.90;;;;;;4919672;29;20212;-75
2024/03/13 08:11:31;;;;;;;3.23;1.53;;;12.30;99.90;;;;;;4919709;29;20244;-73
2024/03/13 08:13:59;;;;;;;3.63;1.67;;;12.40;99.90;;;;;;4919694;29;20248;-73
2024/03/13 08:16:26;;;;;;;5.33;1.87;;;12.60;99.90;;;;;;4919580;29;20216;-74
2024/03/13 08:18:53;;;;;;;2.73;1.70;;;12.60;99.90;;;;;;4919392;29;20700;-72
2024/03/13 08:21:20;;;;;;;3.63;1.77;;;12.70;99.90;;;;;;4919405;29;20251;-72
2024/03/13 08:23:47;;;;;;;3.60;1.60;;;12.90;99.90;;;;;;4919170;29;20263;-73
2024/03/13 08:26:16;;;;;;;6.93;2.47;;;12.90;99.90;;;;;;4919146;29;20323;-74
2024/03/13 08:28:43;;;;;;;4.07;1.80;;;12.90;99.90;;;;;;4919677;29;20240;-73
2024/03/13 08:31:11;;;;;;;3.13;1.50;;;13.10;99.90;;;;;;4919913;29;20260;-73
2024/03/13 08:33:38;;;;;;;3.23;1.10;;;12.90;99.90;;;;;;4919936;29;20728;-73
2024/03/13 08:36:05;;;;;;;3.73;1.30;;;12.70;99.90;;;;;;4919235;29;20725;-75
2024/03/13 08:38:32;;;;;;;3.07;1.10;;;12.50;99.90;;;;;;4919284;29;20559;-73
2024/03/13 08:40:59;;;;;;;2.90;1.07;;;12.40;99.90;;;;;;4919051;29;20608;-72
2024/03/13 08:43:26;;;;;;;3.63;1.13;;;12.40;99.90;;;;;;4919012;29;20205;-72
2024/03/13 08:45:54;;;;;;;2.37;1.10;;;12.40;99.90;;;;;;4919392;29;20239;-72
2024/03/13 08:48:23;;;;;;;3.00;1.47;;;12.40;99.90;;;;;;4919333;29;20296;-72
2024/03/13 08:50:52;;;;;;;4.70;1.37;;;12.30;99.90;;;;;;4919701;29;20229;-73
2024/03/13 08:53:19;;;;;;;3.70;1.20;;;12.30;99.90;;;;;;4919226;29;20240;-74
2024/03/13 08:55:46;;;;;;;1.83;1.00;;;12.40;99.90;;;;;;4919109;29;20244;-73
2024/03/13 08:58:13;;;;;;;1.83;1.40;;;12.30;99.90;;;;;;4918980;29;21176;-73
2024/03/13 09:00:42;;;;;;;1.50;1.10;;;12.30;99.90;;;;;;4918937;29;20792;-73
2024/03/13 09:03:09;;;;;;;3.00;1.30;;;12.40;99.90;;;;;;4919388;29;20271;-73
2024/03/13 09:05:36;;;;;;;3.40;1.40;;;12.50;99.90;;;;;;4918908;29;20323;-73
2024/03/13 09:08:04;;;;;;;5.43;1.77;;;12.60;99.90;;;;;;4918919;29;20732;-74
2024/03/13 09:10:31;;;;;;;3.10;1.30;;;12.60;99.90;;;;;;4918635;29;20267;-75
2024/03/13 09:12:58;;;;;;;5.33;1.43;;;12.60;99.90;;;;;;4918932;29;20704;-73
2024/03/13 09:15:25;;;;;;;4.07;1.50;;;12.70;99.90;;;;;;4919000;29;20520;-74
2024/03/13 09:17:52;;;;;;;6.90;1.50;;;12.80;99.90;;;;;;4918834;29;20244;-73
2024/03/13 09:20:25;;;;;;;2.60;1.30;;;12.90;99.90;;;;;;4918623;29;20224;-72
2024/03/13 09:22:52;;;;;;;2.47;1.30;;;13.30;99.90;;;;;;4919640;29;20259;-74
2024/03/13 09:25:19;;;;;;;2.53;1.40;;;13.50;99.90;;;;;;4922727;29;20271;-72
2024/03/13 09:27:46;;;;;;;1.63;1.03;;;13.70;99.90;;;;;;4920666;29;20248;-72
2024/03/13 09:30:13;;;;;;;3.03;1.20;;;13.70;99.90;;;;;;4921515;29;20229;-72
2024/03/13 09:32:40;;;;;;;2.97;1.17;;;13.80;99.90;;;;;;4920565;29;20240;-72
2024/03/13 09:35:09;;;;;;;2.07;1.00;;;13.70;99.90;;;;;;4918738;29;20299;-73
2024/03/13 09:37:37;;;;;;;2.97;1.10;;;13.70;99.90;;;;;;4918553;29;20243;-72
2024/03/13 09:40:07;;;;;;;4.07;1.00;;;13.90;99.90;;;;;;4922270;29;20260;-72
2024/03/13 09:42:36;;;;;;;5.57;1.90;;;14.10;99.90;;;;;;4922782;29;20269;-72
2024/03/13 09:45:03;;;;;;;2.43;0.80;;;13.90;99.90;;;;;;4922633;29;20685;-72
2024/03/13 09:47:30;;;;;;;2.53;0.70;;;13.70;99.90;;;;;;4922326;29;20216;-71
2024/03/13 09:49:57;;;;;;;1.23;0.60;;;13.90;99.90;;;;;;4922088;29;20256;-72
2024/03/13 09:52:24;;;;;;;1.40;0.77;;;14.10;99.90;;;;;;4922353;29;20299;-72
2024/03/13 09:54:51;;;;;;;1.27;0.80;;;14.50;99.90;;;;;;4922004;29;20240;-72
2024/03/13 09:57:19;;;;;;;1.30;0.70;;;14.60;99.90;;;;;;4922167;29;20296;-72
2024/03/13 09:59:46;;;;;;;1.57;0.70;;;14.50;99.90;;;;;;4922088;29;20232;-73
2024/03/13 10:02:13;;;;;;;2.83;0.83;;;14.70;99.90;;;;;;4921752;29;20268;-72
2024/03/13 10:04:40;;;;;;;2.30;0.97;;;14.60;99.90;;;;;;4921781;29;20295;-72
2024/03/13 10:07:08;;;;;;;2.27;1.17;;;14.60;99.90;;;;;;4921819;29;20736;-73
2024/03/13 10:09:36;;;;;;;3.33;0.90;;;14.60;99.90;;;;;;4922060;29;20229;-74
2024/03/13 10:12:04;;;;;;;2.13;0.90;;;14.80;99.90;;;;;;4922274;29;20209;-73
2024/03/13 10:14:31;;;;;;;1.30;0.80;;;15.00;99.90;;;;;;4922012;29;20215;-72
2024/03/13 10:17:00;;;;;;;2.53;1.07;;;15.00;99.90;;;;;;4921737;29;20308;-72
2024/03/13 10:19:27;;;;;;;1.60;0.90;;;15.30;99.90;;;;;;4921712;29;20236;-72
2024/03/13 10:21:55;;;;;;;1.40;0.80;;;15.20;99.90;;;;;;4921481;29;20330;-73
2024/03/13 10:24:22;;;;;;;1.67;1.10;;;15.00;99.90;;;;;;4921506;29;20649;-72
2024/03/13 10:26:49;;;;;;;1.33;0.90;;;14.70;99.90;;;;;;4921712;29;20236;-73
2024/03/13 10:29:17;;;;;;;1.40;0.70;;;14.50;99.90;;;;;;4921640;29;20251;-71
2024/03/13 10:31:44;;;;;;;2.83;1.10;;;14.20;99.90;;;;;;4921408;29;20267;-73
2024/03/13 10:34:11;;;;;;;3.33;1.07;;;14.10;99.90;;;;;;4921578;29;20296;-72
2024/03/13 10:36:39;;;;;;;4.97;0.97;;;14.10;99.90;;;;;;4921670;29;20216;-72
2024/03/13 10:39:08;;;;;;;1.67;0.93;;;14.00;99.90;;;;;;4921502;29;20239;-73
2024/03/13 10:41:35;;;;;;;1.40;0.83;;;14.10;99.90;;;;;;4921659;29;20212;-72
2024/03/13 10:44:03;;;;;;;1.00;0.60;;;13.80;99.90;;;;;;4921276;29;20251;-72
2024/03/13 10:46:31;;;;;;;1.00;0.70;;;14.00;99.90;;;;;;4921278;29;20247;-72
2024/03/13 10:48:59;;;;;;;2.57;0.80;;;13.90;99.90;;;;;;4921029;29;20608;-72
2024/03/13 10:51:26;;;;;;;2.83;0.93;;;13.80;99.90;;;;;;4920684;29;20212;-72
2024/03/13 10:53:54;;;;;;;1.23;0.70;;;13.90;99.90;;;;;;4920840;29;20692;-73
2024/03/13 10:56:21;;;;;;;1.90;0.70;;;14.10;99.90;;;;;;4921002;29;20216;-72
2024/03/13 10:58:49;;;;;;;1.20;0.50;;;14.30;99.90;;;;;;4920890;29;20236;-72
2024/03/13 11:01:16;;;;;;;1.00;0.60;;;14.40;99.90;;;;;;4921139;29;20620;-73
2024/03/13 11:03:45;;;;;;;1.27;1.00;;;14.60;99.90;;;;;;4920878;29;20260;-72
2024/03/13 11:06:14;;;;;;;1.17;0.87;;;14.90;99.90;;;;;;4905443;29;20235;-72
2024/03/13 11:08:41;;;;;;;1.83;0.90;;;15.10;99.90;;;;;;4921236;29;20223;-72
2024/03/13 11:11:09;;;;;;;2.50;0.80;;;15.20;99.90;;;;;;4920786;29;20320;-72
2024/03/13 11:13:35;;;;;;;0.73;0.60;;;15.30;99.90;;;;;;4920730;29;20300;-72
2024/03/13 11:16:02;;;;;;;1.27;0.83;;;15.30;99.90;;;;;;4920788;29;20204;-74
2024/03/13 11:18:29;;;;;;;0.97;0.80;;;15.40;99.90;;;;;;4920790;29;20237;-72
2024/03/13 11:20:57;;;;;;;1.10;1.00;;;15.20;99.90;;;;;;4920505;29;20315;-72
2024/03/13 11:23:25;;;;;;;1.30;0.97;;;15.10;99.90;;;;;;4920505;29;20252;-73
2024/03/13 11:25:52;;;;;;;2.13;0.87;;;14.80;99.90;;;;;;4920525;29;20239;-72
2024/03/13 11:28:19;;;;;;;1.23;0.60;;;14.60;99.90;;;;;;4920922;29;20296;-72
2024/03/13 11:30:46;;;;;;;0.50;0.40;;;14.20;99.90;;;;;;4920375;29;20307;-72
2024/03/13 11:33:14;;;;;;;1.07;0.50;;;14.00;99.90;;;;;;4920296;29;20205;-73
2024/03/13 11:35:42;;;;;;;0.73;0.47;;;14.20;99.90;;;;;;4920425;29;20846;-72
2024/03/13 11:38:09;;;;;;;0.70;0.50;;;14.40;99.90;;;;;;4920521;29;20225;-72
2024/03/13 11:40:36;;;;;;;3.17;0.73;;;14.60;99.90;;;;;;4920070;29;20701;-72
2024/03/13 11:43:04;;;;;;;0.50;0.40;;;14.80;99.90;;;;;;4920212;29;20657;-72
2024/03/13 11:45:31;;;;;;;0.70;0.40;;;15.10;99.90;;;;;;4920311;29;20209;-72
2024/03/13 11:48:00;;;;;;;0.27;0.27;;;15.40;99.90;;;;;;4920280;29;20255;-72
2024/03/13 11:50:27;;;;;;;1.70;0.40;;;15.40;99.90;;;;;;4919770;29;20625;-71
2024/03/13 11:53:08;;;;;;;0.93;0.33;;;15.20;99.90;;;;;;4919356;29;20201;-72
2024/03/13 11:55:35;;;;;;;0.43;0.30;;;15.10;99.90;;;;;;4919844;29;20213;-71
2024/03/13 11:58:03;;;;;;;1.70;0.40;;;15.00;99.90;;;;;;4920069;29;20260;-72
2024/03/13 12:00:30;;;;;;;0.50;0.40;;;14.70;99.90;;;;;;4919763;29;20233;-72
2024/03/13 12:02:57;;;;;;;1.57;0.30;;;14.60;99.90;;;;;;4919854;29;20240;-73
2024/03/13 12:05:34;;;;;;;0.90;0.40;;;14.80;99.90;;;;;;4920080;29;20208;-73
2024/03/13 12:08:02;;;;;;;0.40;0.40;;;15.10;99.90;;;;;;4920196;29;20283;-72
2024/03/13 12:10:30;;;;;;;0.67;0.30;;;15.00;99.90;;;;;;4919480;29;20235;-72
2024/03/13 12:12:56;;;;;;;0.57;0.33;;;14.80;99.90;;;;;;4919871;29;20204;-72
2024/03/13 12:15:24;;;;;;;1.23;0.40;;;14.70;99.90;;;;;;4919690;29;20292;-72
2024/03/13 12:17:51;;;;;;;0.53;0.30;;;14.70;99.90;;;;;;4919525;29;20260;-73
2024/03/13 12:20:21;;;;;;;0.80;0.30;;;14.70;99.90;;;;;;4919547;29;20697;-72
2024/03/13 12:22:49;;;;;;;0.30;0.30;;;14.70;99.90;;;;;;4919642;29;20307;-72
2024/03/13 12:25:19;;;;;;;0.30;0.30;;;14.60;99.90;;;;;;4919811;29;20227;-72
2024/03/13 12:27:47;;;;;;;1.13;0.40;;;14.80;99.90;;;;;;4919709;29;20232;-71
2024/03/13 12:30:14;;;;;;;0.73;0.43;;;14.80;99.90;;;;;;4919412;29;20243;-72
2024/03/13 12:32:41;;;;;;;2.00;0.87;;;14.80;99.90;;;;;;4919334;29;20204;-71
2024/03/13 12:35:08;;;;;;;0.50;0.40;;;14.70;99.90;;;;;;4919617;29;20213;-72
2024/03/13 12:37:36;;;;;;;1.47;0.30;;;14.80;99.90;;;;;;4919431;29;20213;-72
2024/03/13 12:40:08;;;;;;;1.43;0.50;;;14.60;99.90;;;;;;4919243;29;20228;-71
2024/03/13 12:42:37;;;;;;;1.07;0.67;;;14.30;99.90;;;;;;4919993;29;20332;-72
2024/03/13 12:45:04;;;;;;;0.63;0.40;;;14.10;99.90;;;;;;4919425;29;20223;-73
2024/03/13 12:47:31;;;;;;;2.40;0.30;;;14.20;99.90;;;;;;4919290;29;20653;-72
2024/03/13 12:49:58;;;;;;;0.83;0.40;;;14.30;99.90;;;;;;4919226;29;20279;-75
2024/03/13 12:52:28;;;;;;;0.40;0.30;;;14.10;99.90;;;;;;4919159;29;20737;-75
2024/03/13 12:54:55;;;;;;;0.30;0.30;;;14.30;99.90;;;;;;4919189;29;20243;-74
2024/03/13 12:57:22;;;;;;;1.00;0.50;;;14.50;99.90;;;;;;4919361;29;20213;-73
2024/03/13 12:59:51;;;;;;;0.50;0.30;;;14.40;99.90;;;;;;4919118;29;20315;-74
2024/03/13 13:02:18;;;;;;;0.47;0.40;;;14.50;99.90;;;;;;4919376;29;20205;-72
2024/03/13 13:04:45;;;;;;;1.30;0.40;;;14.40;99.90;;;;;;4918881;29;20212;-73
2024/03/13 13:07:13;;;;;;;0.40;0.30;;;14.40;99.90;;;;;;4918947;29;20236;-73
2024/03/13 13:09:40;;;;;;;0.57;0.30;;;14.20;99.90;;;;;;4918940;29;20235;-72
2024/03/13 13:12:12;;;;;;;2.00;0.50;;;14.20;99.90;;;;;;4918349;29;20212;-73
2024/03/13 13:14:39;;;;;;;0.50;0.30;;;14.00;99.90;;;;;;4919136;29;20670;-74
2024/03/13 13:17:06;;;;;;;0.87;0.30;;;13.90;99.90;;;;;;4919010;29;20248;-73
2024/03/13 13:19:33;;;;;;;0.90;0.40;;;13.80;99.90;;;;;;4919459;29;20268;-72
2024/03/13 13:22:00;;;;;;;0.40;0.30;;;13.80;99.90;;;;;;4918801;29;20252;-76
2024/03/13 13:24:27;;;;;;;0.80;0.40;;;13.70;99.90;;;;;;4918550;29;20287;-74
2024/03/13 13:26:54;;;;;;;0.67;0.40;;;13.70;99.90;;;;;;4918549;29;20328;-75
2024/03/13 13:29:21;;;;;;;0.60;0.50;;;13.90;99.90;;;;;;4918907;29;20316;-75
2024/03/13 13:31:48;;;;;;;0.40;0.40;;;14.00;99.90;;;;;;4919078;29;20248;-74
2024/03/13 13:34:15;;;;;;;1.80;0.40;;;14.10;99.90;;;;;;4918846;29;20742;-75
2024/03/13 13:36:42;;;;;;;0.50;0.40;;;14.10;99.90;;;;;;4918884;29;20291;-74
2024/03/13 13:39:10;;;;;;;1.07;0.53;;;14.10;99.90;;;;;;4918341;29;20264;-75
2024/03/13 13:41:36;;;;;;;3.43;0.50;;;14.20;99.90;;;;;;4919274;29;20292;-73
2024/03/13 13:44:03;;;;;;;0.80;0.50;;;14.30;99.90;;;;;;4918725;29;20272;-73
2024/03/13 13:46:35;;;;;;;0.60;0.47;;;14.40;99.90;;;;;;4918303;29;20232;-71
2024/03/13 13:49:02;;;;;;;0.47;0.40;;;14.30;99.90;;;;;;4918981;29;20209;-74
2024/03/13 13:51:29;;;;;;;0.70;0.30;;;14.10;99.90;;;;;;4918785;29;20636;-73
2024/03/13 13:53:56;;;;;;;1.17;0.37;;;14.10;99.90;;;;;;4918278;29;20292;-73
2024/03/13 13:56:23;;;;;;;0.60;0.40;;;14.10;99.90;;;;;;4918642;29;20243;-74
2024/03/13 13:58:50;;;;;;;1.27;0.50;;;14.10;99.90;;;;;;4918619;29;20244;-73
2024/03/13 14:01:19;;;;;;;0.40;0.40;;;14.00;99.90;;;;;;4918729;29;20240;-75
2024/03/13 14:03:46;;;;;;;1.37;0.60;;;14.10;99.90;;;;;;4918886;29;20209;-74
2024/03/13 14:06:13;;;;;;;1.17;0.47;;;14.00;99.90;;;;;;4918139;29;20299;-75
2024/03/13 14:08:40;;;;;;;0.50;0.40;;;14.00;99.90;;;;;;4918454;29;20300;-73
2024/03/13 14:11:07;;;;;;;0.60;0.50;;;14.00;99.90;;;;;;4918459;29;20267;-72
2024/03/13 14:13:38;;;;;;;0.67;0.60;;;14.00;99.90;;;;;;4918619;29;20213;-75
2024/03/13 14:16:07;;;;;;;1.13;0.60;;;14.00;99.90;;;;;;4919107;29;20206;-74
2024/03/13 14:18:34;;;;;;;0.60;0.60;;;14.10;99.90;;;;;;4918692;29;20268;-74
2024/03/13 14:21:01;;;;;;;1.13;0.50;;;13.90;99.90;;;;;;4918426;29;20268;-74
2024/03/13 14:23:28;;;;;;;1.10;0.47;;;13.80;99.90;;;;;;4918480;29;20224;-73
2024/03/13 14:25:55;;;;;;;0.73;0.40;;;13.80;99.90;;;;;;4921716;29;20208;-75
2024/03/13 14:28:22;;;;;;;0.77;0.43;;;13.90;99.90;;;;;;4921596;29;20331;-73
2024/03/13 14:30:51;;;;;;;0.87;0.50;;;13.90;99.90;;;;;;4921535;29;20233;-74
2024/03/13 14:33:18;;;;;;;1.00;0.70;;;13.90;99.90;;;;;;4921724;29;20238;-72
2024/03/13 14:35:45;;;;;;;0.97;0.60;;;14.00;99.90;;;;;;4921706;29;20295;-74
2024/03/13 14:38:12;;;;;;;1.87;0.50;;;14.10;99.90;;;;;;4921482;29;20244;-72
2024/03/13 14:40:39;;;;;;;2.27;0.70;;;14.10;99.90;;;;;;4921318;29;20233;-72
2024/03/13 14:43:08;;;;;;;2.03;0.60;;;13.90;99.90;;;;;;4921304;29;20232;-74
2024/03/13 14:45:36;;;;;;;14.97;5.67;;;13.90;99.90;;;;;;4921600;29;20209;-74
2024/03/13 14:48:03;;;;;;;2.77;1.17;;;13.90;99.90;;;;;;4921267;29;20279;-75
2024/03/13 14:50:30;;;;;;;3.13;0.90;;;13.70;99.90;;;;;;4921096;29;20736;-72
2024/03/13 14:52:57;;;;;;;0.90;0.50;;;13.80;99.90;;;;;;4921333;29;20205;-73
2024/03/13 14:55:24;;;;;;;2.40;0.70;;;13.70;99.90;;;;;;4921175;29;20236;-73
2024/03/13 14:57:51;;;;;;;0.60;0.50;;;13.80;99.90;;;;;;4921502;29;20212;-73
2024/03/13 15:00:18;;;;;;;1.20;0.50;;;13.80;99.90;;;;;;4920850;29;20260;-73
2024/03/13 15:02:46;;;;;;;0.77;0.60;;;13.90;99.90;;;;;;4920937;29;20209;-73
2024/03/13 15:05:13;;;;;;;0.97;0.70;;;14.00;99.90;;;;;;4921086;29;20239;-75
2024/03/13 15:07:40;;;;;;;1.67;0.80;;;14.10;99.90;;;;;;4921080;29;20272;-73
2024/03/13 15:10:07;;;;;;;1.10;0.73;;;14.20;99.90;;;;;;4920896;29;20319;-73
2024/03/13 15:12:34;;;;;;;1.77;0.70;;;14.10;99.90;;;;;;4920664;29;20213;-74
2024/03/13 15:15:05;;;;;;;1.57;0.80;;;14.10;99.90;;;;;;4920809;29;20205;-74
2024/03/13 15:17:36;;;;;;;0.87;0.70;;;14.00;99.90;;;;;;4921330;29;20569;-73
2024/03/13 15:20:05;;;;;;;1.20;0.73;;;14.10;99.90;;;;;;4921823;29;20229;-74
2024/03/13 15:22:32;;;;;;;1.53;0.70;;;14.10;99.90;;;;;;4921011;29;20248;-73
2024/03/13 15:25:06;;;;;;;1.10;0.63;;;14.00;99.90;;;;;;4920765;29;20304;-73
2024/03/13 15:27:33;;;;;;;3.40;0.80;;;13.90;99.90;;;;;;4921373;29;20237;-74
2024/03/13 15:30:00;;;;;;;0.97;0.77;;;13.70;99.90;;;;;;4920176;29;21003;-72
2024/03/13 15:32:27;;;;;;;0.70;0.60;;;13.60;99.90;;;;;;4920535;29;20618;-73
2024/03/13 15:34:54;;;;;;;2.43;0.80;;;13.70;99.90;;;;;;4920618;29;20649;-75
2024/03/13 15:37:20;;;;;;;1.03;0.80;;;13.70;99.90;;;;;;4920029;29;20240;-75
2024/03/13 15:39:47;;;;;;;1.67;0.90;;;13.60;99.90;;;;;;4920121;29;20316;-73
2024/03/13 15:42:18;;;;;;;1.00;0.90;;;13.60;99.90;;;;;;4919923;29;20208;-74
2024/03/13 15:44:45;;;;;;;2.30;0.60;;;13.50;99.90;;;;;;4920854;29;20205;-73
2024/03/13 15:47:12;;;;;;;4.57;1.60;;;13.50;99.90;;;;;;4920112;29;20705;-73
2024/03/13 15:49:39;;;;;;;1.37;1.00;;;13.60;99.90;;;;;;4919989;29;20776;-72
2024/03/13 15:52:06;;;;;;;0.63;0.60;;;13.60;99.90;;;;;;4920087;29;20717;-73
2024/03/13 15:54:35;;;;;;;1.30;1.20;;;13.60;99.90;;;;;;4919830;29;20219;-71
2024/03/13 15:57:02;;;;;;;1.53;1.00;;;13.70;99.90;;;;;;4920523;29;20293;-72
2024/03/13 15:59:29;;;;;;;1.10;0.80;;;13.80;99.90;;;;;;4920226;29;20594;-72
2024/03/13 16:01:56;;;;;;;1.73;1.20;;;13.90;99.90;;;;;;4920023;29;20259;-74
2024/03/13 16:04:23;;;;;;;1.37;0.90;;;13.90;99.90;;;;;;4919964;29;20294;-74
2024/03/13 16:06:51;;;;;;;1.50;0.90;;;13.90;99.90;;;;;;4919851;29;20248;-71
2024/03/13 16:09:18;;;;;;;1.17;0.80;;;13.90;99.90;;;;;;4919690;29;20740;-72
2024/03/13 16:11:47;;;;;;;1.93;1.20;;;13.90;99.90;;;;;;4919970;29;20288;-72
2024/03/13 16:14:14;;;;;;;2.33;1.07;;;13.90;99.90;;;;;;4920260;29;20296;-75
2024/03/13 16:16:41;;;;;;;2.47;1.33;;;14.00;99.90;;;;;;4920159;29;20251;-74
2024/03/13 16:19:08;;;;;;;1.30;1.00;;;14.00;99.90;;;;;;4919996;29;20264;-72
2024/03/13 16:21:37;;;;;;;1.60;0.90;;;14.00;99.90;;;;;;4919573;29;20292;-72
2024/03/13 16:24:05;;;;;;;1.27;0.97;;;13.80;99.90;;;;;;4919588;29;20259;-73
2024/03/13 16:26:32;;;;;;;1.67;0.97;;;13.70;99.90;;;;;;4919942;29;20294;-73
2024/03/13 16:28:59;;;;;;;2.17;1.07;;;13.70;99.90;;;;;;4919697;29;20240;-73
2024/03/13 16:31:26;;;;;;;1.30;1.03;;;13.60;99.90;;;;;;4919688;29;20303;-74
2024/03/13 16:33:53;;;;;;;2.50;1.10;;;13.60;99.90;;;;;;4920074;29;20241;-75
2024/03/13 16:36:20;;;;;;;2.87;1.50;;;13.60;99.90;;;;;;4923336;29;20240;-72
2024/03/13 16:38:48;;;;;;;1.47;0.90;;;13.60;99.90;;;;;;4922195;29;20559;-71
2024/03/13 16:41:15;;;;;;;2.47;1.30;;;13.60;99.90;;;;;;4921613;29;20577;-71
2024/03/13 16:43:42;;;;;;;3.33;1.47;;;13.70;99.90;;;;;;4921152;29;20383;-72
2024/03/13 16:46:09;;;;;;;1.37;1.10;;;13.60;99.90;;;;;;4918861;29;20641;-72
2024/03/13 16:48:36;;;;;;;2.33;1.40;;;13.50;99.90;;;;;;4918896;29;20237;-74
2024/03/13 16:51:05;;;;;;;1.83;1.37;;;13.50;99.90;;;;;;4919172;29;20232;-73
2024/03/13 16:53:33;;;;;;;2.30;1.57;;;13.50;99.90;;;;;;4919253;29;20244;-72
2024/03/13 16:56:01;;;;;;;1.93;1.23;;;13.50;99.90;;;;;;4918997;29;20219;-73
2024/03/13 16:58:28;;;;;;;3.27;1.67;;;13.50;99.90;;;;;;4920476;29;20699;-72
2024/03/13 17:00:55;;;;;;;1.83;1.20;;;13.50;99.90;;;;;;4921450;29;20233;-76
2024/03/13 17:03:22;;;;;;;3.20;1.40;;;13.40;99.90;;;;;;4923488;29;20614;-76
2024/03/13 17:05:49;;;;;;;2.20;1.20;;;13.40;99.90;;;;;;4922910;29;20625;-73
2024/03/13 17:08:16;;;;;;;2.03;1.43;;;13.40;99.90;;;;;;4919601;29;20323;-73
2024/03/13 17:10:43;;;;;;;2.87;1.23;;;13.40;99.90;;;;;;4919287;29;20267;-73
2024/03/13 17:13:10;;;;;;;2.97;1.10;;;13.30;99.90;;;;;;4919433;29;20300;-72
2024/03/13 17:15:37;;;;;;;2.73;1.70;;;13.20;99.90;;;;;;4918866;29;20296;-73
2024/03/13 17:18:04;;;;;;;1.87;1.17;;;13.10;99.90;;;;;;4918989;29;20252;-74
2024/03/13 17:20:32;;;;;;;1.70;1.17;;;13.10;99.90;;;;;;4918828;29;20753;-74
2024/03/13 17:23:00;;;;;;;2.30;1.47;;;13.00;99.90;;;;;;4918629;29;20221;-76
2024/03/13 17:25:27;;;;;;;1.40;0.97;;;13.00;99.90;;;;;;4918699;29;20300;-74
2024/03/13 17:27:54;;;;;;;4.37;1.20;;;12.90;99.90;;;;;;4918737;29;20232;-74
2024/03/13 17:30:21;;;;;;;2.60;1.30;;;12.80;99.90;;;;;;4918482;29;20236;-75
2024/03/13 17:32:48;;;;;;;1.40;1.10;;;12.80;99.90;;;;;;4918565;29;20248;-73
2024/03/13 17:35:15;;;;;;;3.13;1.33;;;12.70;99.90;;;;;;4918516;29;20646;-74
2024/03/13 17:37:42;;;;;;;1.70;0.90;;;12.70;99.90;;;;;;4918188;29;20259;-73
2024/03/13 17:40:11;;;;;;;3.93;1.60;;;12.70;99.90;;;;;;4918544;29;20225;-72
2024/03/13 17:42:39;;;;;;;2.63;1.30;;;12.70;99.90;;;;;;4918613;29;20251;-73
2024/03/13 17:45:06;;;;;;;1.90;1.30;;;12.60;99.90;;;;;;4918720;29;20679;-72
2024/03/13 17:47:35;;;;;;;2.53;1.40;;;12.50;99.90;;;;;;4918679;29;20635;-73
2024/03/13 17:50:02;;;;;;;2.87;1.30;;;12.60;99.90;;;;;;4918545;29;20622;-72
2024/03/13 17:52:31;;;;;;;1.33;1.07;;;12.60;99.90;;;;;;4918724;29;20300;-72
2024/03/13 17:54:58;;;;;;;2.53;1.47;;;12.70;99.90;;;;;;4918640;29;20212;-73
2024/03/13 17:57:25;;;;;;;2.93;1.40;;;12.70;99.90;;;;;;4918525;29;20725;-73
2024/03/13 17:59:52;;;;;;;1.67;1.17;;;12.80;99.90;;;;;;4920214;29;20324;-72
2024/03/13 18:02:19;;;;;;;1.63;1.10;;;12.80;99.90;;;;;;4922303;29;20248;-74
2024/03/13 18:04:46;;;;;;;2.10;1.10;;;12.80;99.90;;;;;;4921750;29;20299;-73
2024/03/13 18:07:13;;;;;;;2.20;1.00;;;12.90;99.90;;;;;;4921708;29;20209;-74
2024/03/13 18:09:40;;;;;;;2.63;1.33;;;12.80;99.90;;;;;;4921516;29;20732;-72
2024/03/13 18:12:08;;;;;;;3.37;1.60;;;12.80;99.90;;;;;;4922042;29;20236;-72
2024/03/13 18:14:35;;;;;;;2.57;1.27;;;12.80;99.90;;;;;;4921676;29;20216;-75
2024/03/13 18:17:03;;;;;;;1.47;0.93;;;12.80;99.90;;;;;;4921561;29;20303;-72
2024/03/13 18:19:31;;;;;;;1.40;1.00;;;12.80;99.90;;;;;;4922226;29;20288;-72
2024/03/13 18:21:58;;;;;;;1.87;1.10;;;12.80;99.90;;;;;;4921696;29;20614;-72
2024/03/13 18:24:25;;;;;;;2.77;1.27;;;12.80;99.90;;;;;;4921265;29;20292;-73
2024/03/13 18:26:52;;;;;;;1.97;1.20;;;12.80;99.90;;;;;;4921843;29;20243;-73
2024/03/13 18:29:19;;;;;;;1.63;1.17;;;12.70;99.90;;;;;;4921635;29;20276;-72
2024/03/13 18:31:47;;;;;;;1.97;1.00;;;12.70;99.90;;;;;;4921913;29;20247;-73
2024/03/13 18:34:16;;;;;;;1.47;0.70;;;12.60;99.90;;;;;;4921843;29;20216;-72
2024/03/13 18:36:43;;;;;;;5.10;1.10;;;12.50;99.90;;;;;;4921638;29;20205;-72
2024/03/13 18:39:11;;;;;;;0.60;0.57;;;12.50;99.90;;;;;;4921207;29;20260;-72
2024/03/13 18:41:39;;;;;;;2.27;1.40;;;12.50;99.90;;;;;;4921740;29;20224;-72
2024/03/13 18:44:06;;;;;;;1.43;0.93;;;12.50;99.90;;;;;;4921698;29;20219;-72
2024/03/13 18:46:33;;;;;;;1.43;1.03;;;12.50;99.90;;;;;;4921412;29;20233;-72
2024/03/13 18:49:01;;;;;;;1.07;0.63;;;12.50;99.90;;;;;;4924204;28;20255;-72
2024/03/13 18:51:30;;;;;;;2.47;1.13;;;12.40;99.90;;;;;;4932354;29;20622;-72
2024/03/13 18:53:57;;;;;;;1.73;0.73;;;12.30;99.90;;;;;;4919384;29;20206;-74
2024/03/13 18:56:24;;;;;;;1.40;0.70;;;12.30;99.90;;;;;;4919097;29;20296;-73
2024/03/13 18:58:51;;;;;;;1.20;0.80;;;12.40;99.90;;;;;;4920533;29;20237;-73
2024/03/13 19:01:19;;;;;;;1.33;0.70;;;12.40;99.90;;;;;;4927433;28;20263;-72
2024/03/13 19:03:46;;;;;;;1.03;0.80;;;12.50;99.90;;;;;;4925220;29;20569;-71
2024/03/13 19:06:13;;;;;;;1.20;0.70;;;12.40;99.90;;;;;;4920358;29;20205;-72
2024/03/13 19:08:40;;;;;;;1.80;0.90;;;12.40;99.90;;;;;;4920246;29;20236;-73
2024/03/13 19:11:08;;;;;;;1.03;0.60;;;12.30;99.90;;;;;;4918684;29;20760;-73
2024/03/13 19:13:35;;;;;;;1.33;0.70;;;12.30;99.90;;;;;;4920670;29;20221;-74
2024/03/13 19:16:03;;;;;;;1.10;0.80;;;12.40;99.90;;;;;;4920023;29;20248;-73
2024/03/13 19:18:30;;;;;;;1.00;0.50;;;12.30;99.90;;;;;;4920366;29;20543;-73
2024/03/13 19:20:58;;;;;;;2.40;1.30;;;12.30;99.90;;;;;;4919160;29;20653;-73
2024/03/13 19:23:25;;;;;;;0.80;0.70;;;12.30;99.90;;;;;;4918493;29;20232;-73
2024/03/13 19:25:52;;;;;;;1.20;0.80;;;12.30;99.90;;;;;;4919863;29;20229;-73
2024/03/13 19:28:20;;;;;;;1.00;0.60;;;12.30;99.90;;;;;;4919664;29;20268;-72
2024/03/13 19:30:47;;;;;;;1.30;0.80;;;12.30;99.90;;;;;;4919845;29;20723;-73
2024/03/13 19:33:14;;;;;;;1.07;0.70;;;12.30;99.90;;;;;;4919945;29;20637;-73
2024/03/13 19:35:41;;;;;;;1.47;0.57;;;12.30;99.90;;;;;;4919921;29;20637;-74
2024/03/13 19:38:09;;;;;;;1.40;0.80;;;12.30;99.90;;;;;;4908268;29;20209;-73
2024/03/13 19:40:37;;;;;;;3.03;0.60;;;12.30;99.90;;;;;;4920114;29;20296;-72
2024/03/13 19:43:04;;;;;;;0.90;0.57;;;12.30;99.90;;;;;;4920391;29;20213;-74
2024/03/13 19:45:32;;;;;;;1.10;0.60;;;12.30;99.90;;;;;;4919649;29;20321;-73
2024/03/13 19:47:59;;;;;;;1.60;0.73;;;12.30;99.90;;;;;;4919946;29;20216;-73
2024/03/13 19:50:27;;;;;;;2.10;0.87;;;12.30;99.90;;;;;;4919606;29;20256;-75
2024/03/13 19:52:54;;;;;;;0.93;0.67;;;12.30;99.90;;;;;;4913640;29;20209;-73
2024/03/13 19:55:20;;;;;;;1.60;0.90;;;12.30;99.90;;;;;;4930909;29;20299;-73
2024/03/13 19:57:47;;;;;;;1.57;0.73;;;12.30;99.90;;;;;;4920285;29;20713;-73
2024/03/13 20:00:16;;;;;;;1.30;0.97;;;12.30;99.90;;;;;;4919601;29;20256;-73
2024/03/13 20:02:44;;;;;;;1.10;0.70;;;12.30;99.90;;;;;;4920054;29;20217;-74
2024/03/13 20:05:12;;;;;;;1.77;0.80;;;12.20;99.90;;;;;;4919324;29;20208;-73
2024/03/13 20:07:40;;;;;;;7.33;3.13;;;12.20;99.90;;;;;;4919453;29;20213;-74
2024/03/13 20:10:11;;;;;;;1.97;1.17;;;12.20;99.90;;;;;;4918902;29;20737;-73